createdAt,value
2022-11-15T00:01:15.126Z,5.50
2022-11-15T00:03:42.897Z,5.50
2022-11-15T00:06:11.143Z,5.50
2022-11-15T00:08:42.103Z,5.40
2022-11-15T00:11:13.660Z,5.50
2022-11-15T00:13:41.965Z,5.50
2022-11-15T00:16:12.079Z,5.40
2022-11-15T00:18:40.237Z,5.50
2022-11-15T00:21:11.744Z,5.40
2022-11-15T00:23:40.131Z,5.40
2022-11-15T00:26:08.359Z,5.30
2022-11-15T00:28:37.467Z,5.30
2022-11-15T00:31:07.394Z,5.30
2022-11-15T00:33:35.723Z,5.30
2022-11-15T00:36:05.003Z,5.30
2022-11-15T00:38:34.416Z,5.20
2022-11-15T00:41:07.738Z,5.30
2022-11-15T00:43:40.662Z,5.20
2022-11-15T00:46:09.878Z,5.20
2022-11-15T00:48:37.924Z,5.20
2022-11-15T00:51:05.767Z,5.20
2022-11-15T00:53:36.628Z,5.20
2022-11-15T00:56:04.633Z,5.20
2022-11-15T00:58:33.288Z,5.10
2022-11-15T01:01:10.094Z,5.10
2022-11-15T01:03:38.525Z,5.10
2022-11-15T01:06:07.108Z,5.10
2022-11-15T01:08:35.342Z,5.10
2022-11-15T01:11:04.118Z,5.10
2022-11-15T01:13:33.733Z,5.10
2022-11-15T01:16:07.023Z,5.00
2022-11-15T01:18:36.449Z,5.10
2022-11-15T01:21:07.881Z,5.00
2022-11-15T01:23:35.862Z,5.00
2022-11-15T01:26:04.873Z,5.00
2022-11-15T01:28:33.516Z,5.00
2022-11-15T01:31:01.777Z,4.90
2022-11-15T01:33:31.141Z,5.00
2022-11-15T01:36:00.452Z,5.00
2022-11-15T01:38:28.253Z,5.10
2022-11-15T01:40:56.012Z,5.00
2022-11-15T01:43:26.460Z,4.90
2022-11-15T01:45:58.695Z,4.80
2022-11-15T01:48:31.366Z,4.80
2022-11-15T01:51:01.736Z,4.90
2022-11-15T01:53:30.891Z,4.90
2022-11-15T01:55:59.715Z,4.90
2022-11-15T01:58:27.502Z,5.00
2022-11-15T02:00:55.388Z,4.80
2022-11-15T02:03:28.097Z,4.80
2022-11-15T02:05:56.140Z,4.70
2022-11-15T02:08:25.316Z,4.70
2022-11-15T02:10:53.171Z,4.70
2022-11-15T02:13:20.992Z,4.80
2022-11-15T02:16:02.626Z,4.80
2022-11-15T02:18:36.681Z,4.70
2022-11-15T02:21:16.853Z,4.70
2022-11-15T02:24:37.595Z,4.60
2022-11-15T02:27:54.156Z,4.60
2022-11-15T02:30:26.217Z,4.60
2022-11-15T02:32:59.931Z,4.70
2022-11-15T02:35:36.669Z,4.60
2022-11-15T02:38:10.932Z,4.60
2022-11-15T02:40:46.708Z,4.50
2022-11-15T02:43:39.587Z,4.50
2022-11-15T02:46:15.280Z,4.50
2022-11-15T02:48:45.069Z,4.50
2022-11-15T02:51:17.653Z,4.50
2022-11-15T02:53:45.445Z,4.40
2022-11-15T02:56:14.216Z,4.40
2022-11-15T02:59:08.989Z,4.40
2022-11-15T03:01:50.739Z,4.40
2022-11-15T03:04:31.829Z,4.40
2022-11-15T03:07:04.582Z,4.40
2022-11-15T03:09:37.303Z,4.40
2022-11-15T03:12:13.327Z,4.40
2022-11-15T03:14:49.261Z,4.30
2022-11-15T03:17:25.326Z,4.30
2022-11-15T03:19:57.098Z,4.30
2022-11-15T03:22:28.387Z,4.40
2022-11-15T03:25:00.347Z,4.40
2022-11-15T03:27:34.679Z,4.30
2022-11-15T03:30:05.935Z,4.40
2022-11-15T03:32:39.634Z,4.30
2022-11-15T03:35:11.052Z,4.30
2022-11-15T03:37:45.817Z,4.30
2022-11-15T03:40:14.673Z,4.40
2022-11-15T03:42:50.208Z,4.30
2022-11-15T03:45:24.216Z,4.30
2022-11-15T03:47:57.402Z,4.20
2022-11-15T03:50:26.984Z,4.10
2022-11-15T03:52:57.677Z,4.10
2022-11-15T03:55:25.674Z,4.20
2022-11-15T03:57:56.423Z,4.10
2022-11-15T04:00:24.534Z,4.10
2022-11-15T04:02:53.737Z,4.10
2022-11-15T04:05:21.674Z,4.10
2022-11-15T04:07:49.517Z,4.00
2022-11-15T04:10:18.003Z,3.90
2022-11-15T04:12:48.541Z,4.00
2022-11-15T04:15:18.915Z,4.00
2022-11-15T04:17:48.143Z,4.00
2022-11-15T04:20:36.796Z,4.00
2022-11-15T04:23:25.431Z,4.00
2022-11-15T04:25:55.875Z,4.00
2022-11-15T04:28:24.214Z,4.00
2022-11-15T04:30:52.044Z,4.00
2022-11-15T04:33:20.205Z,4.00
2022-11-15T04:36:09.331Z,4.00
2022-11-15T04:38:36.734Z,4.00
2022-11-15T04:41:05.041Z,3.90
2022-11-15T04:43:33.249Z,3.90
2022-11-15T04:46:01.352Z,4.00
2022-11-15T04:48:29.185Z,4.00
2022-11-15T04:50:58.374Z,3.90
2022-11-15T04:53:26.208Z,3.90
2022-11-15T04:55:54.003Z,3.80
2022-11-15T04:58:21.806Z,3.80
2022-11-15T05:00:49.875Z,3.80
2022-11-15T05:03:35.470Z,3.80
2022-11-15T05:06:04.939Z,3.80
2022-11-15T05:08:32.704Z,3.70
2022-11-15T05:11:00.570Z,3.70
2022-11-15T05:13:28.605Z,3.70
2022-11-15T05:15:56.504Z,3.70
2022-11-15T05:18:24.302Z,3.70
2022-11-15T05:20:52.107Z,3.70
2022-11-15T05:23:21.325Z,3.60
2022-11-15T05:25:49.120Z,3.70
2022-11-15T05:28:17.004Z,3.60
2022-11-15T05:30:44.873Z,3.60
2022-11-15T05:33:12.767Z,3.60
2022-11-15T05:35:47.382Z,3.60
2022-11-15T05:38:15.289Z,3.60
2022-11-15T05:40:44.499Z,3.60
2022-11-15T05:43:12.721Z,3.70
2022-11-15T05:45:40.575Z,3.70
2022-11-15T05:48:10.930Z,3.70
2022-11-15T05:50:40.844Z,3.70
2022-11-15T05:53:09.485Z,3.50
2022-11-15T05:55:37.353Z,3.40
2022-11-15T05:58:06.512Z,3.40
2022-11-15T06:00:34.465Z,3.40
2022-11-15T06:03:02.266Z,3.30
2022-11-15T06:05:30.097Z,3.30
2022-11-15T06:07:59.751Z,3.40
2022-11-15T06:10:27.917Z,3.40
2022-11-15T06:12:59.622Z,3.40
2022-11-15T06:15:29.230Z,3.50
2022-11-15T06:17:59.305Z,3.60
2022-11-15T06:20:27.259Z,3.50
2022-11-15T06:22:59.054Z,3.40
2022-11-15T06:25:27.655Z,3.30
2022-11-15T06:27:56.955Z,2.90
2022-11-15T06:30:26.475Z,2.90
2022-11-15T06:33:01.551Z,3.10
2022-11-15T06:35:29.444Z,3.10
2022-11-15T06:37:57.771Z,3.20
2022-11-15T06:40:25.545Z,3.20
2022-11-15T06:42:58.775Z,3.20
2022-11-15T06:45:26.721Z,3.20
2022-11-15T06:47:55.824Z,3.20
2022-11-15T06:50:23.728Z,3.20
2022-11-15T06:52:51.603Z,3.20
2022-11-15T06:55:19.685Z,3.20
2022-11-15T06:57:52.047Z,3.20
2022-11-15T07:00:22.114Z,3.20
2022-11-15T07:02:49.961Z,3.10
2022-11-15T07:05:19.141Z,3.20
2022-11-15T07:07:53.459Z,3.20
2022-11-15T07:10:21.717Z,3.30
2022-11-15T07:12:50.275Z,3.30
2022-11-15T07:15:18.664Z,3.30
2022-11-15T07:17:46.641Z,3.40
2022-11-15T07:20:15.175Z,3.40
2022-11-15T07:22:46.061Z,3.30
2022-11-15T07:25:14.163Z,3.40
2022-11-15T07:27:51.094Z,3.40
2022-11-15T07:30:19.412Z,3.40
2022-11-15T07:32:47.494Z,3.90
2022-11-15T07:35:15.503Z,3.90
2022-11-15T07:37:44.719Z,3.90
2022-11-15T07:40:13.550Z,3.90
2022-11-15T07:42:57.070Z,3.80
2022-11-15T07:45:27.644Z,4.40
2022-11-15T07:47:56.882Z,4.30
2022-11-15T07:50:25.673Z,5.00
2022-11-15T07:52:58.140Z,5.90
2022-11-15T07:55:26.718Z,5.50
2022-11-15T07:57:54.804Z,4.80
2022-11-15T08:00:22.627Z,4.30
2022-11-15T08:02:50.828Z,3.80
2022-11-15T08:05:18.784Z,3.70
2022-11-15T08:07:46.558Z,3.60
2022-11-15T08:10:17.658Z,3.70
2022-11-15T08:12:45.616Z,3.60
2022-11-15T08:15:13.498Z,3.80
2022-11-15T08:17:41.344Z,4.50
2022-11-15T08:20:10.389Z,5.40
2022-11-15T08:22:49.405Z,5.40
2022-11-15T08:25:19.021Z,6.10
2022-11-15T08:27:46.964Z,6.40
2022-11-15T08:30:16.898Z,6.30
2022-11-15T08:32:44.832Z,5.80
2022-11-15T08:35:12.608Z,5.60
2022-11-15T08:37:41.133Z,5.70
2022-11-15T08:40:10.456Z,6.00
2022-11-15T08:42:39.635Z,5.70
2022-11-15T08:45:08.756Z,5.70
2022-11-15T08:47:36.680Z,5.20
2022-11-15T08:50:04.940Z,5.00
2022-11-15T08:52:32.786Z,4.90
2022-11-15T08:55:00.852Z,5.00
2022-11-15T08:57:31.554Z,5.10
2022-11-15T09:00:00.822Z,5.40
2022-11-15T09:02:28.705Z,5.70
2022-11-15T09:04:56.518Z,5.60
2022-11-15T09:07:25.868Z,5.20
2022-11-15T09:09:53.924Z,5.00
2022-11-15T09:12:21.729Z,5.00
2022-11-15T09:14:49.539Z,5.00
2022-11-15T09:17:23.327Z,5.10
2022-11-15T09:19:52.672Z,5.20
2022-11-15T09:22:20.582Z,5.30
2022-11-15T09:24:48.421Z,5.50
2022-11-15T09:27:16.149Z,5.60
2022-11-15T09:29:43.993Z,5.60
2022-11-15T09:32:12.032Z,5.70
2022-11-15T09:34:41.166Z,5.90
2022-11-15T09:37:08.960Z,5.90
2022-11-15T09:39:36.819Z,6.00
2022-11-15T09:42:26.732Z,6.10
2022-11-15T09:45:06.367Z,6.10
2022-11-15T09:47:46.788Z,6.30
2022-11-15T09:50:20.542Z,6.40
2022-11-15T09:52:48.339Z,6.70
2022-11-15T09:55:22.204Z,7.00
2022-11-15T09:57:57.550Z,7.00
2022-11-15T10:00:50.960Z,7.40
2022-11-15T10:03:23.960Z,7.80
2022-11-15T10:05:56.190Z,7.70
2022-11-15T10:08:45.980Z,7.70
2022-11-15T10:14:13.500Z,8.10
2022-11-15T10:17:15.328Z,8.50
2022-11-15T10:19:54.609Z,8.10
2022-11-15T10:22:32.158Z,8.10
2022-11-15T10:25:14.307Z,8.20
2022-11-15T10:27:43.058Z,8.30
2022-11-15T10:30:14.516Z,8.20
2022-11-15T10:32:44.473Z,8.30
2022-11-15T10:35:27.952Z,8.40
2022-11-15T10:38:07.531Z,9.10
2022-11-15T10:40:35.825Z,9.10
2022-11-15T10:43:15.223Z,8.90
2022-11-15T10:45:43.300Z,9.40
2022-11-15T10:48:29.114Z,9.30
2022-11-15T10:50:57.867Z,9.10
2022-11-15T10:53:35.176Z,9.50
2022-11-15T10:56:09.078Z,9.90
2022-11-15T10:58:40.512Z,9.90
2022-11-15T11:01:14.001Z,9.70
2022-11-15T11:03:44.024Z,10.20
2022-11-15T11:06:14.562Z,9.90
2022-11-15T11:08:56.544Z,10.00
2022-11-15T11:11:24.534Z,10.40
2022-11-15T11:13:52.482Z,9.90
2022-11-15T11:16:43.224Z,9.80
2022-11-15T11:19:22.921Z,9.90
2022-11-15T11:22:00.015Z,9.90
2022-11-15T11:24:38.014Z,9.80
2022-11-15T11:27:16.015Z,9.80
2022-11-15T11:30:03.949Z,9.80
2022-11-15T11:32:43.023Z,10.60
2022-11-15T11:35:15.253Z,10.50
2022-11-15T11:38:02.173Z,10.50
2022-11-15T11:40:36.922Z,10.80
2022-11-15T11:43:14.384Z,10.60
2022-11-15T11:46:12.068Z,10.90
2022-11-15T11:48:43.924Z,10.70
2022-11-15T11:51:19.432Z,10.70
2022-11-15T11:53:54.143Z,10.70
2022-11-15T11:56:29.561Z,10.90
2022-11-15T11:59:04.344Z,11.00
2022-11-15T12:01:36.836Z,11.10
2022-11-15T12:04:11.361Z,10.90
2022-11-15T12:06:44.495Z,10.70
2022-11-15T12:09:18.613Z,10.70
2022-11-15T12:11:56.926Z,10.60
2022-11-15T12:14:33.498Z,10.70
2022-11-15T12:17:01.697Z,10.80
2022-11-15T12:19:31.331Z,10.90
2022-11-15T12:22:04.085Z,10.90
2022-11-15T12:24:36.670Z,10.90
2022-11-15T12:27:13.637Z,10.80
2022-11-15T12:29:45.023Z,10.90
2022-11-15T12:32:27.644Z,11.00
2022-11-15T12:34:56.715Z,10.80
2022-11-15T12:37:52.380Z,11.00
2022-11-15T12:40:28.795Z,10.90
2022-11-15T12:43:43.341Z,11.10
2022-11-15T12:46:22.326Z,11.00
2022-11-15T12:48:55.754Z,10.90
2022-11-15T12:51:45.016Z,11.00
2022-11-15T12:55:07.153Z,11.00
2022-11-15T12:57:42.927Z,11.20
2022-11-15T13:00:40.943Z,11.30
2022-11-15T13:03:20.252Z,11.60
2022-11-15T13:06:03.801Z,11.60
2022-11-15T13:08:44.797Z,11.40
2022-11-15T13:11:50.795Z,11.60
2022-11-15T13:14:41.526Z,11.40
2022-11-15T13:17:34.318Z,11.40
2022-11-15T13:20:23.142Z,11.30
2022-11-15T13:22:51.836Z,11.30
2022-11-15T13:25:25.231Z,11.20
2022-11-15T13:27:55.298Z,11.30
2022-11-15T13:30:25.613Z,11.30
2022-11-15T13:32:55.538Z,11.40
2022-11-15T13:35:25.875Z,11.50
2022-11-15T13:37:55.132Z,11.40
2022-11-15T13:40:28.274Z,11.40
2022-11-15T13:42:57.400Z,11.30
2022-11-15T13:45:25.847Z,11.30
2022-11-15T13:47:57.468Z,11.20
2022-11-15T13:50:29.472Z,11.20
2022-11-15T13:53:01.249Z,11.10
2022-11-15T13:55:30.607Z,11.10
2022-11-15T13:58:00.615Z,11.10
2022-11-15T14:00:38.533Z,11.10
2022-11-15T14:03:18.860Z,11.10
2022-11-15T14:06:07.612Z,11.20
2022-11-15T14:08:36.697Z,11.10
2022-11-15T14:11:15.676Z,11.10
2022-11-15T14:13:44.000Z,11.10
2022-11-15T14:16:17.267Z,11.10
2022-11-15T14:18:49.327Z,10.90
2022-11-15T14:21:17.530Z,11.00
2022-11-15T14:23:45.652Z,11.00
2022-11-15T14:26:29.513Z,11.00
2022-11-15T14:28:57.304Z,11.00
2022-11-15T14:31:25.366Z,10.90
2022-11-15T14:33:54.481Z,10.80
2022-11-15T14:36:23.307Z,10.70
2022-11-15T14:38:51.206Z,10.60
2022-11-15T14:41:26.608Z,10.60
2022-11-15T14:43:55.189Z,10.50
2022-11-15T14:46:22.963Z,10.50
2022-11-15T14:48:51.124Z,10.50
2022-11-15T14:51:20.815Z,10.40
2022-11-15T14:53:49.373Z,10.40
2022-11-15T14:56:20.475Z,10.30
2022-11-15T14:58:48.255Z,10.30
2022-11-15T15:01:26.780Z,10.20
2022-11-15T15:03:56.815Z,10.20
2022-11-15T15:06:26.159Z,10.10
2022-11-15T15:08:53.927Z,10.10
2022-11-15T15:11:24.307Z,10.10
2022-11-15T15:13:53.192Z,10.00
2022-11-15T15:16:21.322Z,10.00
2022-11-15T15:18:49.460Z,9.90
2022-11-15T15:21:23.042Z,9.80
2022-11-15T15:23:52.487Z,9.70
2022-11-15T15:26:20.294Z,9.70
2022-11-15T15:28:49.429Z,9.60
2022-11-15T15:31:17.208Z,9.60
2022-11-15T15:33:45.179Z,9.50
2022-11-15T15:36:14.193Z,9.40
2022-11-15T15:38:42.990Z,9.40
2022-11-15T15:41:13.408Z,9.40
2022-11-15T15:43:41.575Z,9.30
2022-11-15T15:46:11.888Z,9.30
2022-11-15T15:48:40.379Z,9.20
2022-11-15T15:51:15.454Z,9.10
2022-11-15T15:53:46.428Z,9.10
2022-11-15T15:56:15.629Z,9.10
2022-11-15T15:58:43.399Z,9.00
2022-11-15T16:01:11.373Z,9.00
2022-11-15T16:03:39.201Z,9.00
2022-11-15T16:06:22.167Z,8.90
2022-11-15T16:09:13.632Z,8.80
2022-11-15T16:11:39.060Z,8.80
2022-11-15T16:14:06.927Z,8.80
2022-11-15T16:16:35.007Z,8.80
2022-11-15T16:19:02.955Z,8.80
2022-11-15T16:21:30.859Z,8.70
2022-11-15T16:23:59.009Z,8.50
2022-11-15T16:26:29.181Z,8.50
2022-11-15T16:28:58.296Z,8.60
2022-11-15T16:31:26.080Z,8.70
2022-11-15T16:33:53.851Z,8.60
2022-11-15T16:36:29.566Z,8.60
2022-11-15T16:38:58.853Z,8.60
2022-11-15T16:41:27.086Z,8.60
2022-11-15T16:43:55.048Z,8.50
2022-11-15T16:46:25.666Z,8.50
2022-11-15T16:48:54.888Z,8.50
2022-11-15T16:51:23.591Z,8.50
2022-11-15T16:53:51.646Z,8.50
2022-11-15T16:56:23.278Z,8.30
2022-11-15T16:58:51.404Z,8.00
2022-11-15T17:01:23.566Z,7.90
2022-11-15T17:03:53.034Z,8.00
2022-11-15T17:06:21.141Z,8.20
2022-11-15T17:08:49.364Z,8.30
2022-11-15T17:11:18.996Z,8.20
2022-11-15T17:13:48.660Z,8.20
2022-11-15T17:16:18.317Z,8.20
2022-11-15T17:18:46.539Z,8.00
2022-11-15T17:21:18.246Z,8.10
2022-11-15T17:23:46.188Z,8.10
2022-11-15T17:26:29.271Z,8.00
2022-11-15T17:29:00.826Z,7.90
2022-11-15T17:31:30.574Z,8.00
2022-11-15T17:33:58.356Z,8.00
2022-11-15T17:36:27.583Z,7.90
2022-11-15T17:38:59.245Z,7.90
2022-11-15T17:41:28.507Z,7.90
2022-11-15T17:43:58.869Z,7.80
2022-11-15T17:46:27.535Z,7.80
2022-11-15T17:48:59.234Z,7.80
2022-11-15T17:51:28.437Z,7.80
2022-11-15T17:53:56.957Z,7.70
2022-11-15T17:56:26.791Z,7.70
2022-11-15T17:58:56.021Z,7.70
2022-11-15T18:01:25.369Z,7.50
2022-11-15T18:03:53.803Z,7.70
2022-11-15T18:06:23.727Z,8.00
2022-11-15T18:08:55.816Z,8.10
2022-11-15T18:11:25.026Z,8.20
2022-11-15T18:13:54.742Z,8.30
2022-11-15T18:16:25.267Z,8.30
2022-11-15T18:18:53.985Z,8.30
2022-11-15T18:21:23.663Z,8.30
2022-11-15T18:23:56.792Z,8.30
2022-11-15T18:26:27.593Z,8.40
2022-11-15T18:28:57.305Z,8.30
2022-11-15T18:31:28.061Z,8.30
2022-11-15T18:33:56.727Z,8.30
2022-11-15T18:36:26.537Z,8.30
2022-11-15T18:38:57.242Z,8.30
2022-11-15T18:41:28.435Z,8.20
2022-11-15T18:43:57.075Z,8.20
2022-11-15T18:46:27.015Z,8.30
2022-11-15T18:48:55.650Z,8.30
2022-11-15T18:51:25.687Z,8.30
2022-11-15T18:53:54.487Z,8.30
2022-11-15T18:56:25.415Z,8.20
2022-11-15T18:58:56.344Z,8.20
2022-11-15T19:01:25.837Z,8.20
2022-11-15T19:03:55.697Z,8.20
2022-11-15T19:06:25.375Z,8.20
2022-11-15T19:08:56.355Z,8.00
2022-11-15T19:11:28.652Z,8.10
2022-11-15T19:13:58.008Z,8.10
2022-11-15T19:16:26.498Z,8.10
2022-11-15T19:18:55.632Z,8.10
2022-11-15T19:21:24.139Z,8.10
2022-11-15T19:23:54.063Z,8.10
2022-11-15T19:26:23.629Z,8.10
2022-11-15T19:28:54.488Z,8.10
2022-11-15T19:31:24.186Z,8.10
2022-11-15T19:33:53.603Z,8.00
2022-11-15T19:36:23.216Z,7.90
2022-11-15T19:38:51.508Z,8.00
2022-11-15T19:41:21.797Z,7.90
2022-11-15T19:43:50.760Z,7.90
2022-11-15T19:46:21.778Z,7.90
2022-11-15T19:48:49.887Z,7.90
2022-11-15T19:51:19.586Z,7.90
2022-11-15T19:53:47.439Z,8.00
2022-11-15T19:56:17.462Z,7.90
2022-11-15T19:58:45.974Z,7.90
2022-11-15T20:01:17.139Z,8.00
2022-11-15T20:03:47.528Z,7.90
2022-11-15T20:06:22.562Z,7.90
2022-11-15T20:08:50.732Z,7.90
2022-11-15T20:11:19.306Z,7.80
2022-11-15T20:13:48.326Z,7.90
2022-11-15T20:16:18.529Z,7.90
2022-11-15T20:18:49.012Z,7.90
2022-11-15T20:21:17.128Z,7.90
2022-11-15T20:23:45.470Z,7.80
2022-11-15T20:26:15.839Z,7.80
2022-11-15T20:28:44.634Z,7.80
2022-11-15T20:31:12.878Z,7.80
2022-11-15T20:33:41.112Z,7.80
2022-11-15T20:36:12.996Z,7.80
2022-11-15T20:38:41.244Z,7.80
2022-11-15T20:41:09.445Z,7.80
2022-11-15T20:43:37.233Z,7.80
2022-11-15T20:46:05.638Z,7.80
2022-11-15T20:48:33.696Z,7.80
2022-11-15T20:51:06.952Z,7.80
2022-11-15T20:53:36.552Z,7.70
2022-11-15T20:56:07.677Z,7.60
2022-11-15T20:58:36.221Z,7.60
2022-11-15T21:01:06.842Z,7.70
2022-11-15T21:03:35.654Z,7.70
2022-11-15T21:06:04.004Z,7.60
2022-11-15T21:08:52.402Z,7.60
2022-11-15T21:11:40.341Z,7.60
2022-11-15T21:14:09.774Z,7.70
2022-11-15T21:16:37.771Z,7.70
2022-11-15T21:19:06.941Z,7.70
2022-11-15T21:21:34.972Z,7.60
2022-11-15T21:24:03.835Z,7.60
2022-11-15T21:26:33.094Z,7.60
2022-11-15T21:29:00.960Z,7.60
2022-11-15T21:31:29.251Z,7.60
2022-11-15T21:33:57.002Z,7.60
2022-11-15T21:36:25.447Z,7.60
2022-11-15T21:38:53.536Z,7.60
2022-11-15T21:41:21.342Z,7.50
2022-11-15T21:43:50.475Z,7.50
2022-11-15T21:46:18.584Z,7.50
2022-11-15T21:48:46.658Z,7.50
2022-11-15T21:51:14.535Z,7.50
2022-11-15T21:53:42.407Z,7.50
2022-11-15T21:56:11.785Z,7.40
2022-11-15T21:58:40.436Z,7.30
2022-11-15T22:01:29.472Z,7.40
2022-11-15T22:03:57.314Z,7.40
2022-11-15T22:06:25.373Z,7.30
2022-11-15T22:08:53.277Z,7.40
2022-11-15T22:11:21.179Z,7.40
2022-11-15T22:13:48.988Z,7.40
2022-11-15T22:16:18.299Z,7.40
2022-11-15T22:18:46.422Z,7.40
2022-11-15T22:21:15.867Z,7.40
2022-11-15T22:23:44.952Z,7.40
2022-11-15T22:26:20.804Z,7.30
2022-11-15T22:28:53.667Z,7.30
2022-11-15T22:31:22.907Z,7.40
2022-11-15T22:33:50.845Z,7.40
2022-11-15T22:36:18.947Z,7.30
2022-11-15T22:38:46.909Z,7.40
2022-11-15T22:41:14.923Z,7.30
2022-11-15T22:43:42.814Z,7.30
2022-11-15T22:46:11.101Z,7.30
2022-11-15T22:48:40.417Z,7.30
2022-11-15T22:51:08.860Z,7.30
2022-11-15T22:53:36.765Z,7.20
2022-11-15T22:56:06.416Z,6.90
2022-11-15T23:01:20.908Z,7.10
2022-11-15T23:03:50.280Z,7.20
2022-11-15T23:06:18.215Z,7.20
2022-11-15T23:08:46.142Z,7.20
2022-11-15T23:11:46.295Z,7.20
2022-11-15T23:14:14.245Z,7.10
2022-11-15T23:16:42.181Z,7.10
2022-11-15T23:19:12.887Z,7.10
2022-11-15T23:21:59.104Z,7.00
2022-11-15T23:24:27.085Z,7.00
2022-11-15T23:26:56.807Z,6.90
2022-11-15T23:29:26.273Z,7.00
2022-11-15T23:32:12.645Z,7.00
2022-11-15T23:34:44.409Z,7.00
2022-11-15T23:37:15.092Z,6.90
2022-11-15T23:39:42.959Z,6.80
2022-11-15T23:42:19.308Z,6.90
2022-11-15T23:44:49.786Z,6.90
2022-11-15T23:47:17.665Z,6.70
2022-11-15T23:49:47.011Z,6.70
2022-11-15T23:52:15.730Z,6.30
2022-11-15T23:54:44.029Z,6.50
2022-11-15T23:57:12.752Z,6.60
2022-11-15T23:59:41.096Z,6.70
